createdAt,value
2018-03-08T00:01:38.401Z,99618.03
2018-03-08T00:04:06.785Z,99618.44
2018-03-08T00:06:35.132Z,99623.91
2018-03-08T00:09:03.441Z,99618.66
2018-03-08T00:11:31.821Z,99623.15
2018-03-08T00:14:00.152Z,99614.67
2018-03-08T00:16:28.515Z,99624.02
2018-03-08T00:18:57.014Z,99628.55
2018-03-08T00:21:25.375Z,99632.31
2018-03-08T00:23:53.712Z,99626.08
2018-03-08T00:26:22.835Z,99626.70
2018-03-08T00:28:51.168Z,99633.00
2018-03-08T00:31:19.510Z,99631.20
2018-03-08T00:33:47.880Z,99627.29
2018-03-08T00:36:16.339Z,99624.81
2018-03-08T00:38:44.660Z,99634.59
2018-03-08T00:41:13.533Z,99632.45
2018-03-08T00:43:41.848Z,99633.00
2018-03-08T00:46:10.197Z,99630.97
2018-03-08T00:48:38.529Z,99628.73
2018-03-08T00:51:07.633Z,99627.11
2018-03-08T00:53:36.722Z,99629.77
2018-03-08T00:56:05.853Z,99624.09
2018-03-08T00:58:34.178Z,99625.18
2018-03-08T01:01:03.353Z,99626.84
2018-03-08T01:03:31.788Z,99626.98
2018-03-08T01:06:00.931Z,99622.71
2018-03-08T01:08:29.278Z,99620.97
2018-03-08T01:10:57.621Z,99621.87
2018-03-08T01:13:25.939Z,99616.56
2018-03-08T01:15:54.252Z,99620.72
2018-03-08T01:18:22.637Z,99620.70
2018-03-08T01:20:50.973Z,99619.80
2018-03-08T01:23:19.318Z,99620.34
2018-03-08T01:25:48.629Z,99621.02
2018-03-08T01:28:17.736Z,99615.81
2018-03-08T01:30:46.056Z,99620.00
2018-03-08T01:33:14.428Z,99619.39
2018-03-08T01:35:42.777Z,99613.66
2018-03-08T01:38:11.220Z,99607.92
2018-03-08T01:40:40.365Z,99605.31
2018-03-08T01:43:08.694Z,99607.19
2018-03-08T01:45:37.032Z,99604.19
2018-03-08T01:48:05.573Z,99605.08
2018-03-08T01:50:34.652Z,99601.92
2018-03-08T01:53:03.769Z,99601.53
2018-03-08T01:55:32.108Z,99599.90
2018-03-08T01:58:00.637Z,99601.45
2018-03-08T02:00:29.706Z,99597.77
2018-03-08T02:02:58.266Z,99597.34
2018-03-08T02:05:26.642Z,99597.43
2018-03-08T02:07:55.044Z,99595.83
2018-03-08T02:10:23.755Z,99599.29
2018-03-08T02:12:52.284Z,99593.98
2018-03-08T02:15:20.924Z,99598.19
2018-03-08T02:17:50.028Z,99592.67
2018-03-08T02:20:18.395Z,99596.72
2018-03-08T02:22:47.497Z,99593.37
2018-03-08T02:25:16.653Z,99598.36
2018-03-08T02:27:44.977Z,99603.63
2018-03-08T02:30:13.446Z,99600.98
2018-03-08T02:32:43.154Z,99599.64
2018-03-08T02:35:11.565Z,99603.98
2018-03-08T02:37:40.243Z,99606.28
2018-03-08T02:40:08.827Z,99609.55
2018-03-08T02:42:37.509Z,99603.77
2018-03-08T02:45:05.798Z,99617.05
2018-03-08T02:47:34.142Z,99615.13
2018-03-08T02:50:02.468Z,99619.23
2018-03-08T02:52:31.022Z,99607.62
2018-03-08T02:54:59.692Z,99612.22
2018-03-08T02:57:28.342Z,99613.63
2018-03-08T02:59:56.654Z,99605.39
2018-03-08T03:02:25.025Z,99616.12
2018-03-08T03:04:53.457Z,99618.42
2018-03-08T03:07:21.786Z,99615.31
2018-03-08T03:09:50.987Z,99616.77
2018-03-08T03:12:19.282Z,99618.09
2018-03-08T03:14:47.593Z,99613.08
2018-03-08T03:17:16.522Z,99616.95
2018-03-08T03:19:44.984Z,99620.47
2018-03-08T03:22:13.419Z,99615.32
2018-03-08T03:24:41.800Z,99623.59
2018-03-08T03:27:10.384Z,99621.25
2018-03-08T03:29:38.717Z,99620.29
2018-03-08T03:32:07.218Z,99615.82
2018-03-08T03:34:35.590Z,99617.31
2018-03-08T03:37:05.563Z,99615.89
2018-03-08T03:39:34.104Z,99615.70
2018-03-08T03:42:02.689Z,99625.55
2018-03-08T03:44:31.142Z,99615.89
2018-03-08T03:46:59.730Z,99615.55
2018-03-08T03:49:28.134Z,99618.03
2018-03-08T03:51:56.614Z,99617.29
2018-03-08T03:54:24.976Z,99629.48
2018-03-08T03:56:53.300Z,99619.14
2018-03-08T03:59:21.853Z,99620.98
2018-03-08T04:01:50.229Z,99623.37
2018-03-08T04:04:18.854Z,99620.91
2018-03-08T04:06:47.282Z,99624.94
2018-03-08T04:09:15.644Z,99614.79
2018-03-08T04:11:44.297Z,99625.42
2018-03-08T04:14:12.604Z,99627.42
2018-03-08T04:16:41.011Z,99631.64
2018-03-08T04:19:09.782Z,99632.52
2018-03-08T04:21:38.111Z,99627.73
2018-03-08T04:24:07.548Z,99626.92
2018-03-08T04:26:35.873Z,99623.68
2018-03-08T04:29:04.220Z,99624.87
2018-03-08T04:31:32.752Z,99622.20
2018-03-08T04:34:01.145Z,99624.81
2018-03-08T04:36:29.511Z,99625.50
2018-03-08T04:38:57.888Z,99635.58
2018-03-08T04:41:26.954Z,99627.77
2018-03-08T04:43:55.294Z,99635.77
2018-03-08T04:46:23.700Z,99632.63
2018-03-08T04:48:52.099Z,99641.28
2018-03-08T04:51:20.708Z,99635.66
2018-03-08T04:53:49.287Z,99635.31
2018-03-08T04:56:18.643Z,99644.77
2018-03-08T04:58:47.005Z,99639.10
2018-03-08T05:01:15.352Z,99638.98
2018-03-08T05:03:44.444Z,99634.67
2018-03-08T05:06:12.770Z,99637.60
2018-03-08T05:08:41.614Z,99641.52
2018-03-08T05:11:09.924Z,99642.24
2018-03-08T05:13:38.256Z,99645.30
2018-03-08T05:16:06.602Z,99646.73
2018-03-08T05:18:35.050Z,99646.42
2018-03-08T05:21:03.393Z,99651.70
2018-03-08T05:23:31.768Z,99653.15
2018-03-08T05:26:00.093Z,99657.47
2018-03-08T05:28:28.404Z,99657.25
2018-03-08T05:30:56.963Z,99662.03
2018-03-08T05:33:25.286Z,99660.94
2018-03-08T05:35:53.610Z,99662.92
2018-03-08T05:38:21.962Z,99661.86
2018-03-08T05:40:50.316Z,99657.63
2018-03-08T05:43:18.668Z,99669.51
2018-03-08T05:45:47.019Z,99669.02
2018-03-08T05:48:15.340Z,99674.86
2018-03-08T05:50:43.657Z,99677.89
2018-03-08T05:53:13.096Z,99679.99
2018-03-08T05:55:41.961Z,99675.20
2018-03-08T05:58:10.460Z,99678.76
2018-03-08T06:00:38.815Z,99679.41
2018-03-08T06:03:07.980Z,99684.11
2018-03-08T06:05:36.345Z,99688.45
2018-03-08T06:08:04.725Z,99694.92
2018-03-08T06:10:33.102Z,99690.69
2018-03-08T06:13:01.442Z,99700.59
2018-03-08T06:15:29.843Z,99699.48
2018-03-08T06:17:58.174Z,99702.25
2018-03-08T06:20:27.313Z,99707.38
2018-03-08T06:22:55.677Z,99709.16
2018-03-08T06:25:23.992Z,99712.08
2018-03-08T06:27:52.464Z,99713.59
2018-03-08T06:30:20.810Z,99722.39
2018-03-08T06:32:49.136Z,99723.91
2018-03-08T06:35:17.642Z,99728.89
2018-03-08T06:37:46.327Z,99725.67
2018-03-08T06:40:14.677Z,99735.33
2018-03-08T06:42:43.023Z,99736.08
2018-03-08T06:45:11.501Z,99733.80
2018-03-08T06:47:39.842Z,99734.73
2018-03-08T06:50:08.189Z,99744.92
2018-03-08T06:52:36.564Z,99744.42
2018-03-08T06:55:04.914Z,99743.70
2018-03-08T06:57:33.657Z,99741.84
2018-03-08T07:00:02.061Z,99744.69
2018-03-08T07:02:30.649Z,99749.23
2018-03-08T07:04:59.763Z,99749.21
2018-03-08T07:07:28.110Z,99749.42
2018-03-08T07:09:56.425Z,99751.82
2018-03-08T07:12:24.805Z,99752.02
2018-03-08T07:14:53.160Z,99757.03
2018-03-08T07:17:21.710Z,99755.09
2018-03-08T07:19:50.054Z,99762.43
2018-03-08T07:22:18.599Z,99764.81
2018-03-08T07:24:46.980Z,99766.97
2018-03-08T07:27:15.364Z,99778.84
2018-03-08T07:29:44.520Z,99778.68
2018-03-08T07:32:13.067Z,99782.78
2018-03-08T07:34:41.538Z,99783.06
2018-03-08T07:37:10.025Z,99782.05
2018-03-08T07:39:38.377Z,99789.44
2018-03-08T07:42:06.887Z,99794.31
2018-03-08T07:44:35.300Z,99799.99
2018-03-08T07:47:03.742Z,99803.40
2018-03-08T07:49:32.113Z,99799.83
2018-03-08T07:52:00.584Z,99810.20
2018-03-08T07:54:29.326Z,99815.36
2018-03-08T07:56:57.651Z,99811.17
2018-03-08T07:59:26.919Z,99819.98
2018-03-08T08:01:55.244Z,99822.69
2018-03-08T08:04:42.170Z,99826.52
2018-03-08T08:07:28.812Z,99824.59
2018-03-08T08:09:57.295Z,99826.98
2018-03-08T08:12:25.771Z,99833.16
2018-03-08T08:14:54.425Z,99829.85
2018-03-08T08:17:22.790Z,99842.22
2018-03-08T08:19:51.928Z,99841.47
2018-03-08T08:22:20.415Z,99849.51
2018-03-08T08:24:48.996Z,99849.95
2018-03-08T08:27:17.317Z,99851.41
2018-03-08T08:29:46.572Z,99856.56
2018-03-08T08:32:15.058Z,99857.01
2018-03-08T08:34:43.398Z,99858.33
2018-03-08T08:37:12.047Z,99858.28
2018-03-08T08:39:40.683Z,99867.20
2018-03-08T08:42:09.029Z,99858.05
2018-03-08T08:44:38.136Z,99858.48
2018-03-08T08:47:07.368Z,99860.11
2018-03-08T08:49:35.681Z,99866.72
2018-03-08T08:52:04.045Z,99863.53
2018-03-08T08:54:32.444Z,99867.56
2018-03-08T08:57:00.746Z,99873.48
2018-03-08T08:59:30.013Z,99878.23
2018-03-08T09:01:58.423Z,99877.98
2018-03-08T09:04:27.539Z,99885.63
2018-03-08T09:06:55.868Z,99894.27
2018-03-08T09:09:24.739Z,99885.59
2018-03-08T09:11:53.104Z,99885.31
2018-03-08T09:14:21.424Z,99887.00
2018-03-08T09:16:49.782Z,99896.62
2018-03-08T09:19:18.863Z,99886.47
2018-03-08T09:21:47.192Z,99898.36
2018-03-08T09:24:15.594Z,99889.70
2018-03-08T09:26:43.930Z,99890.91
2018-03-08T09:29:12.284Z,99892.65
2018-03-08T09:31:40.733Z,99894.25
2018-03-08T09:34:09.276Z,99894.06
2018-03-08T09:36:37.591Z,99895.41
2018-03-08T09:39:05.935Z,99901.87
2018-03-08T09:41:34.287Z,99898.50
2018-03-08T09:44:02.694Z,99892.48
2018-03-08T09:46:31.064Z,99899.16
2018-03-08T09:48:59.437Z,99897.52
2018-03-08T09:51:27.781Z,99898.51
2018-03-08T09:53:56.544Z,99886.05
2018-03-08T09:56:24.895Z,99892.72
2018-03-08T09:58:53.269Z,99899.10
2018-03-08T10:01:21.647Z,99905.12
2018-03-08T10:03:49.967Z,99903.70
2018-03-08T10:06:18.331Z,99903.22
2018-03-08T10:08:46.764Z,99905.92
2018-03-08T10:11:15.120Z,99900.95
2018-03-08T10:13:43.537Z,99902.81
2018-03-08T10:16:12.226Z,99903.55
2018-03-08T10:18:40.557Z,99906.42
2018-03-08T10:21:08.904Z,99905.25
2018-03-08T10:23:37.253Z,99911.59
2018-03-08T10:26:05.651Z,99896.89
2018-03-08T10:28:34.014Z,99903.00
2018-03-08T10:31:02.348Z,99897.38
2018-03-08T10:33:30.763Z,99897.00
2018-03-08T10:35:59.120Z,99905.21
2018-03-08T10:38:27.740Z,99908.70
2018-03-08T10:40:56.121Z,99901.98
2018-03-08T10:43:24.519Z,99898.84
2018-03-08T10:45:52.998Z,99905.36
2018-03-08T10:48:21.320Z,99901.58
2018-03-08T10:50:49.636Z,99902.95
2018-03-08T10:53:18.008Z,99906.50
2018-03-08T10:55:46.344Z,99903.64
2018-03-08T10:58:14.731Z,99909.95
2018-03-08T11:00:46.985Z,99921.67
2018-03-08T11:03:16.077Z,99913.62
2018-03-08T11:05:47.443Z,99911.17
2018-03-08T11:08:16.809Z,99918.42
2018-03-08T11:10:45.202Z,99912.95
2018-03-08T11:13:13.552Z,99914.28
2018-03-08T11:15:41.908Z,99917.41
2018-03-08T11:18:10.426Z,99908.54
2018-03-08T11:20:38.941Z,99909.61
2018-03-08T11:23:07.647Z,99901.16
2018-03-08T11:25:35.974Z,99903.73
2018-03-08T11:28:04.311Z,99903.53
2018-03-08T11:30:32.678Z,99905.54
2018-03-08T11:33:01.192Z,99898.86
2018-03-08T11:35:29.524Z,99895.45
2018-03-08T11:37:58.946Z,99888.17
2018-03-08T11:40:27.331Z,99881.25
2018-03-08T11:42:55.914Z,99885.41
2018-03-08T11:45:24.366Z,99876.44
2018-03-08T11:47:52.712Z,99881.20
2018-03-08T11:50:21.853Z,99893.86
2018-03-08T11:52:49.422Z,99886.98
2018-03-08T11:55:17.754Z,99888.80
2018-03-08T11:57:46.126Z,99883.41
2018-03-08T12:00:14.580Z,99870.61
2018-03-08T12:02:42.891Z,99873.45
2018-03-08T12:05:11.288Z,99868.64
2018-03-08T12:07:40.904Z,99863.70
2018-03-08T12:10:09.994Z,99866.64
2018-03-08T12:12:38.341Z,99865.15
2018-03-08T12:15:06.690Z,99864.52
2018-03-08T12:17:35.084Z,99862.33
2018-03-08T12:20:03.397Z,99864.52
2018-03-08T12:22:31.753Z,99861.47
2018-03-08T12:25:00.051Z,99856.45
2018-03-08T12:27:28.433Z,99852.53
2018-03-08T12:29:56.997Z,99838.70
2018-03-08T12:32:25.410Z,99844.52
2018-03-08T12:34:54.545Z,99835.02
2018-03-08T12:37:23.165Z,99834.50
2018-03-08T12:39:51.502Z,99830.63
2018-03-08T12:42:19.844Z,99826.55
2018-03-08T12:44:48.230Z,99819.50
2018-03-08T12:47:16.561Z,99819.73
2018-03-08T12:49:44.899Z,99822.11
2018-03-08T12:52:13.294Z,99824.43
2018-03-08T12:54:41.649Z,99822.55
2018-03-08T12:57:10.065Z,99819.77
2018-03-08T12:59:38.442Z,99813.28
2018-03-08T13:02:06.824Z,99814.71
2018-03-08T13:04:35.172Z,99810.81
2018-03-08T13:07:04.281Z,99809.84
2018-03-08T13:09:32.597Z,99805.13
2018-03-08T13:12:00.913Z,99797.31
2018-03-08T13:14:29.521Z,99790.09
2018-03-08T13:16:58.216Z,99799.84
2018-03-08T13:19:26.575Z,99792.41
2018-03-08T13:21:55.716Z,99792.52
2018-03-08T13:24:24.099Z,99775.41
2018-03-08T13:26:53.460Z,99766.47
2018-03-08T13:29:22.569Z,99763.75
2018-03-08T13:31:51.671Z,99763.08
2018-03-08T13:34:19.998Z,99768.77
2018-03-08T13:36:48.470Z,99768.48
2018-03-08T13:39:16.837Z,99768.91
2018-03-08T13:41:45.169Z,99747.46
2018-03-08T13:44:14.365Z,99745.66
2018-03-08T13:46:42.717Z,99739.30
2018-03-08T13:49:29.595Z,99744.04
2018-03-08T13:51:57.944Z,99740.43
2018-03-08T13:54:27.026Z,99739.37
2018-03-08T13:56:56.357Z,99736.36
2018-03-08T13:59:24.739Z,99734.28
2018-03-08T14:01:53.081Z,99730.20
2018-03-08T14:04:21.430Z,99719.70
2018-03-08T14:06:50.514Z,99718.51
2018-03-08T14:09:18.827Z,99721.56
2018-03-08T14:11:47.175Z,99714.23
2018-03-08T14:14:15.480Z,99721.06
2018-03-08T14:16:43.783Z,99723.69
2018-03-08T14:19:13.100Z,99712.83
2018-03-08T14:21:41.466Z,99704.77
2018-03-08T14:24:09.837Z,99705.59
2018-03-08T14:26:38.957Z,99703.95
2018-03-08T14:29:07.318Z,99698.64
2018-03-08T14:31:36.469Z,99695.28
2018-03-08T14:34:04.840Z,99693.96
2018-03-08T14:36:33.179Z,99693.00
2018-03-08T14:39:01.514Z,99692.52
2018-03-08T14:41:29.930Z,99681.91
2018-03-08T14:43:58.269Z,99679.19
2018-03-08T14:46:26.624Z,99684.31
2018-03-08T14:48:54.993Z,99681.88
2018-03-08T14:51:23.313Z,99682.77
2018-03-08T14:53:51.683Z,99681.02
2018-03-08T14:56:20.038Z,99669.20
2018-03-08T14:58:48.419Z,99670.82
2018-03-08T15:01:16.761Z,99665.53
2018-03-08T15:03:45.509Z,99655.66
2018-03-08T15:06:13.845Z,99655.38
2018-03-08T15:08:42.163Z,99647.93
2018-03-08T15:11:10.511Z,99652.05
2018-03-08T15:13:38.810Z,99641.83
2018-03-08T15:16:07.147Z,99645.75
2018-03-08T15:18:35.514Z,99653.67
2018-03-08T15:21:03.853Z,99652.67
2018-03-08T15:23:32.221Z,99648.16
2018-03-08T15:26:00.636Z,99645.25
2018-03-08T15:28:28.994Z,99646.33
2018-03-08T15:30:57.372Z,99653.93
2018-03-08T15:33:25.815Z,99646.27
2018-03-08T15:35:54.116Z,99640.34
2018-03-08T15:38:22.513Z,99644.72
2018-03-08T15:40:50.989Z,99650.66
2018-03-08T15:43:19.324Z,99642.14
2018-03-08T15:45:47.680Z,99640.63
2018-03-08T15:48:17.301Z,99631.66
2018-03-08T15:50:46.383Z,99637.78
2018-03-08T15:53:14.741Z,99622.52
2018-03-08T15:55:43.112Z,99623.34
2018-03-08T15:58:11.540Z,99620.44
2018-03-08T16:00:40.718Z,99614.45
2018-03-08T16:03:08.996Z,99613.89
2018-03-08T16:05:37.358Z,99611.55
2018-03-08T16:11:32.722Z,99618.52
2018-03-08T16:14:01.826Z,99609.84
2018-03-08T16:16:30.180Z,99620.42
2018-03-08T16:18:58.488Z,99606.13
2018-03-08T16:21:41.686Z,99608.48
2018-03-08T16:24:10.798Z,99617.65
2018-03-08T16:26:39.911Z,99618.27
2018-03-08T16:29:08.635Z,99603.14
2018-03-08T16:31:36.885Z,99600.48
2018-03-08T16:34:05.203Z,99606.02
2018-03-08T16:36:33.772Z,99609.44
2018-03-08T16:39:02.086Z,99603.77
2018-03-08T16:41:31.186Z,99613.11
2018-03-08T16:44:00.303Z,99606.02
2018-03-08T16:46:29.366Z,99615.62
2018-03-08T16:48:57.718Z,99614.20
2018-03-08T16:51:26.203Z,99619.44
2018-03-08T16:53:54.491Z,99618.55
2018-03-08T16:56:22.812Z,99615.67
2018-03-08T16:58:51.910Z,99604.34
2018-03-08T17:01:20.243Z,99611.52
2018-03-08T17:03:48.612Z,99608.56
2018-03-08T17:06:16.986Z,99609.45
2018-03-08T17:08:45.320Z,99618.31
2018-03-08T17:11:14.407Z,99618.02
2018-03-08T17:13:42.807Z,99611.32
2018-03-08T17:16:11.901Z,99607.67
2018-03-08T17:18:40.264Z,99604.80
2018-03-08T17:21:08.604Z,99594.92
2018-03-08T17:23:36.898Z,99595.42
2018-03-08T17:26:05.233Z,99593.14
2018-03-08T17:28:33.638Z,99598.45
2018-03-08T17:31:02.085Z,99622.22
2018-03-08T17:33:30.452Z,99623.56
2018-03-08T17:35:59.173Z,99604.59
2018-03-08T17:38:27.517Z,99607.00
2018-03-08T17:40:55.841Z,99613.97
2018-03-08T17:43:24.253Z,99601.14
2018-03-08T17:45:53.403Z,99606.27
2018-03-08T17:48:21.786Z,99610.58
2018-03-08T17:50:50.098Z,99618.83
2018-03-08T17:53:18.402Z,99617.45
2018-03-08T17:55:46.777Z,99612.72
2018-03-08T17:58:15.154Z,99613.41
2018-03-08T18:00:43.504Z,99601.02
2018-03-08T18:03:11.825Z,99605.86
2018-03-08T18:05:40.235Z,99611.23
2018-03-08T18:08:08.572Z,99602.85
2018-03-08T18:10:37.683Z,99601.50
2018-03-08T18:13:06.083Z,99598.16
2018-03-08T18:15:34.444Z,99601.34
2018-03-08T18:18:02.850Z,99593.64
2018-03-08T18:20:31.503Z,99591.78
2018-03-08T18:22:59.836Z,99589.20
2018-03-08T18:25:28.154Z,99600.65
2018-03-08T18:27:57.289Z,99613.11
2018-03-08T18:30:25.614Z,99603.80
2018-03-08T18:32:54.721Z,99608.95
2018-03-08T18:35:23.901Z,99605.70
2018-03-08T18:37:52.260Z,99601.05
2018-03-08T18:40:20.589Z,99602.91
2018-03-08T18:42:49.267Z,99604.80
2018-03-08T18:45:17.597Z,99607.14
2018-03-08T18:47:45.965Z,99603.71
2018-03-08T18:50:14.417Z,99607.12
2018-03-08T18:52:42.731Z,99599.77
2018-03-08T18:55:11.028Z,99603.40
2018-03-08T18:57:39.394Z,99598.03
2018-03-08T19:00:07.705Z,99596.53
2018-03-08T19:02:36.810Z,99600.25
2018-03-08T19:05:06.034Z,99602.36
2018-03-08T19:07:34.363Z,99596.80
2018-03-08T19:10:03.466Z,99599.80
2018-03-08T19:12:32.642Z,99603.48
2018-03-08T19:15:00.998Z,99602.67
2018-03-08T19:17:29.319Z,99610.16
2018-03-08T19:19:57.668Z,99608.37
2018-03-08T19:22:26.039Z,99598.56
2018-03-08T19:24:54.398Z,99604.95
2018-03-08T19:27:22.909Z,99592.34
2018-03-08T19:29:51.273Z,99609.86
2018-03-08T19:32:19.597Z,99616.53
2018-03-08T19:34:48.789Z,99615.52
2018-03-08T19:37:17.182Z,99616.77
2018-03-08T19:39:45.532Z,99616.28
2018-03-08T19:42:13.891Z,99619.91
2018-03-08T19:44:42.415Z,99627.30
2018-03-08T19:47:10.752Z,99642.55
2018-03-08T19:49:39.383Z,99651.97
2018-03-08T19:52:08.534Z,99649.23
2018-03-08T19:54:36.873Z,99656.70
2018-03-08T19:57:05.398Z,99660.72
2018-03-08T19:59:33.793Z,99639.73
2018-03-08T20:02:02.138Z,99617.28
2018-03-08T20:04:30.555Z,99622.66
2018-03-08T20:06:58.911Z,99634.84
2018-03-08T20:09:27.294Z,99629.30
2018-03-08T20:11:55.769Z,99645.26
2018-03-08T20:14:24.902Z,99648.27
2018-03-08T20:16:53.247Z,99651.16
2018-03-08T20:19:21.612Z,99628.20
2018-03-08T20:21:49.945Z,99614.92
2018-03-08T20:24:18.320Z,99612.82
2018-03-08T20:26:46.689Z,99603.41
2018-03-08T20:29:15.049Z,99606.17
2018-03-08T20:31:43.399Z,99607.19
2018-03-08T20:34:11.964Z,99614.58
2018-03-08T20:36:40.354Z,99618.61
2018-03-08T20:39:08.689Z,99623.98
2018-03-08T20:41:37.036Z,99618.88
2018-03-08T20:44:05.360Z,99620.73
2018-03-08T20:46:34.462Z,99615.17
2018-03-08T20:49:03.643Z,99621.48
2018-03-08T20:51:32.050Z,99618.03
2018-03-08T20:54:01.971Z,99623.66
2018-03-08T20:56:31.188Z,99623.65
2018-03-08T20:58:59.563Z,99632.55
2018-03-08T21:01:27.940Z,99626.12
2018-03-08T21:03:56.312Z,99624.77
2018-03-08T21:06:24.671Z,99623.43
2018-03-08T21:08:53.778Z,99630.14
2018-03-08T21:11:22.170Z,99631.80
2018-03-08T21:13:50.512Z,99629.72
2018-03-08T21:16:18.893Z,99635.11
2018-03-08T21:18:47.327Z,99630.63
2018-03-08T21:21:15.821Z,99630.95
2018-03-08T21:23:44.938Z,99623.27
2018-03-08T21:26:13.603Z,99624.81
2018-03-08T21:28:42.348Z,99618.02
2018-03-08T21:31:11.459Z,99626.77
2018-03-08T21:33:39.826Z,99619.99
2018-03-08T21:36:08.135Z,99623.85
2018-03-08T21:38:36.473Z,99629.66
2018-03-08T21:41:06.074Z,99626.92
2018-03-08T21:43:34.396Z,99623.49
2018-03-08T21:46:02.750Z,99618.91
2018-03-08T21:48:31.873Z,99629.67
2018-03-08T21:51:00.199Z,99624.53
2018-03-08T21:53:28.548Z,99625.39
2018-03-08T21:55:56.901Z,99624.20
2018-03-08T21:58:25.213Z,99624.23
2018-03-08T22:00:53.580Z,99625.45
2018-03-08T22:03:22.240Z,99634.29
2018-03-08T22:05:50.557Z,99623.81
2018-03-08T22:08:18.952Z,99630.98
2018-03-08T22:10:47.309Z,99633.95
2018-03-08T22:13:15.678Z,99634.15
2018-03-08T22:15:44.002Z,99631.98
2018-03-08T22:18:12.361Z,99636.77
2018-03-08T22:20:40.741Z,99627.84
2018-03-08T22:23:09.080Z,99628.58
2018-03-08T22:25:37.595Z,99632.08
2018-03-08T22:28:05.961Z,99617.91
2018-03-08T22:30:34.320Z,99633.28
2018-03-08T22:33:02.709Z,99635.45
2018-03-08T22:35:31.084Z,99626.31
2018-03-08T22:37:59.440Z,99637.67
2018-03-08T22:40:27.809Z,99635.05
2018-03-08T22:42:56.932Z,99642.20
2018-03-08T22:45:25.997Z,99647.37
2018-03-08T22:47:54.423Z,99637.27
2018-03-08T22:50:22.835Z,99643.56
2018-03-08T22:52:51.160Z,99641.50
2018-03-08T22:55:19.871Z,99643.59
2018-03-08T22:57:48.275Z,99650.52
2018-03-08T23:00:18.376Z,99648.30
2018-03-08T23:02:46.903Z,99653.19
2018-03-08T23:05:15.299Z,99650.06
2018-03-08T23:07:43.633Z,99649.87
2018-03-08T23:10:12.042Z,99653.62
2018-03-08T23:12:40.399Z,99647.80
2018-03-08T23:15:08.735Z,99652.23
2018-03-08T23:17:37.105Z,99654.95
2018-03-08T23:20:05.446Z,99655.98
2018-03-08T23:22:33.784Z,99647.66
2018-03-08T23:25:02.173Z,99651.17
2018-03-08T23:27:30.480Z,99643.41
2018-03-08T23:29:58.809Z,99645.11
2018-03-08T23:32:27.577Z,99647.70
2018-03-08T23:34:56.678Z,99648.80
2018-03-08T23:37:25.017Z,99640.66
2018-03-08T23:39:54.153Z,99639.97
2018-03-08T23:42:23.238Z,99637.54
2018-03-08T23:44:52.339Z,99634.03
2018-03-08T23:47:21.559Z,99636.52
2018-03-08T23:49:49.890Z,99636.39
2018-03-08T23:52:18.237Z,99643.17
2018-03-08T23:54:46.936Z,99641.67
2018-03-08T23:57:15.284Z,99636.53
2018-03-08T23:59:43.618Z,99639.86
